sensor_id;sensor_type;location;lat;lon;timestamp;temperature;humidity
18339;DHT22;9295;44.484;11.240;2023-07-22T00:00:28;25.10;99.90
18339;DHT22;9295;44.484;11.240;2023-07-22T00:02:59;25.00;99.90
18339;DHT22;9295;44.484;11.240;2023-07-22T00:05:28;25.00;99.90
18339;DHT22;9295;44.484;11.240;2023-07-22T00:07:56;24.90;99.90
18339;DHT22;9295;44.484;11.240;2023-07-22T00:10:25;24.90;99.90
18339;DHT22;9295;44.484;11.240;2023-07-22T00:12:53;24.90;99.90
18339;DHT22;9295;44.484;11.240;2023-07-22T00:15:24;24.90;99.90
18339;DHT22;9295;44.484;11.240;2023-07-22T00:17:52;24.90;99.90
18339;DHT22;9295;44.484;11.240;2023-07-22T00:20:23;24.80;99.90
18339;DHT22;9295;44.484;11.240;2023-07-22T00:22:52;24.80;99.90
18339;DHT22;9295;44.484;11.240;2023-07-22T00:25:22;24.80;99.90
18339;DHT22;9295;44.484;11.240;2023-07-22T00:27:51;24.80;99.90
18339;DHT22;9295;44.484;11.240;2023-07-22T00:30:20;24.80;99.90
18339;DHT22;9295;44.484;11.240;2023-07-22T00:32:52;24.70;99.90
18339;DHT22;9295;44.484;11.240;2023-07-22T00:35:21;24.60;99.90
18339;DHT22;9295;44.484;11.240;2023-07-22T00:37:52;24.60;99.90
18339;DHT22;9295;44.484;11.240;2023-07-22T00:40:22;24.50;99.90
18339;DHT22;9295;44.484;11.240;2023-07-22T00:42:51;24.50;99.90
18339;DHT22;9295;44.484;11.240;2023-07-22T00:45:37;24.40;99.90
18339;DHT22;9295;44.484;11.240;2023-07-22T00:48:08;24.40;99.90
18339;DHT22;9295;44.484;11.240;2023-07-22T00:50:38;24.40;99.90
18339;DHT22;9295;44.484;11.240;2023-07-22T00:53:08;24.40;99.90
18339;DHT22;9295;44.484;11.240;2023-07-22T00:55:39;24.30;99.90
18339;DHT22;9295;44.484;11.240;2023-07-22T00:58:08;24.30;99.90
18339;DHT22;9295;44.484;11.240;2023-07-22T01:00:37;24.30;99.90
18339;DHT22;9295;44.484;11.240;2023-07-22T01:03:09;24.30;99.90
18339;DHT22;9295;44.484;11.240;2023-07-22T01:05:38;24.30;99.90
18339;DHT22;9295;44.484;11.240;2023-07-22T01:08:11;24.30;99.90
18339;DHT22;9295;44.484;11.240;2023-07-22T01:10:41;24.20;99.90
18339;DHT22;9295;44.484;11.240;2023-07-22T01:13:10;24.10;99.90
18339;DHT22;9295;44.484;11.240;2023-07-22T01:15:39;24.00;99.90
18339;DHT22;9295;44.484;11.240;2023-07-22T01:18:12;23.90;99.90
18339;DHT22;9295;44.484;11.240;2023-07-22T01:20:40;23.80;99.90
18339;DHT22;9295;44.484;11.240;2023-07-22T01:23:11;23.70;99.90
18339;DHT22;9295;44.484;11.240;2023-07-22T01:25:40;23.80;99.90
18339;DHT22;9295;44.484;11.240;2023-07-22T01:28:09;23.80;99.90
18339;DHT22;9295;44.484;11.240;2023-07-22T01:30:39;23.80;99.90
18339;DHT22;9295;44.484;11.240;2023-07-22T01:33:08;23.80;99.90
18339;DHT22;9295;44.484;11.240;2023-07-22T01:35:36;23.80;99.90
18339;DHT22;9295;44.484;11.240;2023-07-22T01:38:05;23.70;99.90
18339;DHT22;9295;44.484;11.240;2023-07-22T01:40:36;23.70;99.90
18339;DHT22;9295;44.484;11.240;2023-07-22T01:43:05;23.60;99.90
18339;DHT22;9295;44.484;11.240;2023-07-22T01:45:33;23.60;99.90
18339;DHT22;9295;44.484;11.240;2023-07-22T01:48:02;23.60;99.90
18339;DHT22;9295;44.484;11.240;2023-07-22T01:50:31;23.60;99.90
18339;DHT22;9295;44.484;11.240;2023-07-22T01:52:59;23.60;99.90
18339;DHT22;9295;44.484;11.240;2023-07-22T01:55:28;23.60;99.90
18339;DHT22;9295;44.484;11.240;2023-07-22T01:57:59;23.60;99.90
18339;DHT22;9295;44.484;11.240;2023-07-22T02:00:27;23.50;99.90
18339;DHT22;9295;44.484;11.240;2023-07-22T02:02:56;23.50;99.90
18339;DHT22;9295;44.484;11.240;2023-07-22T02:05:25;23.40;99.90
18339;DHT22;9295;44.484;11.240;2023-07-22T02:07:56;23.30;99.90
18339;DHT22;9295;44.484;11.240;2023-07-22T02:10:26;23.40;99.90
18339;DHT22;9295;44.484;11.240;2023-07-22T02:12:55;23.40;99.90
18339;DHT22;9295;44.484;11.240;2023-07-22T02:15:25;23.40;99.90
18339;DHT22;9295;44.484;11.240;2023-07-22T02:17:54;23.40;99.90
18339;DHT22;9295;44.484;11.240;2023-07-22T02:20:23;23.40;99.90
18339;DHT22;9295;44.484;11.240;2023-07-22T02:22:57;23.30;99.90
18339;DHT22;9295;44.484;11.240;2023-07-22T02:25:25;23.30;99.90
18339;DHT22;9295;44.484;11.240;2023-07-22T02:27:54;23.30;99.90
18339;DHT22;9295;44.484;11.240;2023-07-22T02:30:22;23.30;99.90
18339;DHT22;9295;44.484;11.240;2023-07-22T02:32:52;23.30;99.90
18339;DHT22;9295;44.484;11.240;2023-07-22T02:35:21;23.30;99.90
18339;DHT22;9295;44.484;11.240;2023-07-22T02:37:50;23.30;99.90
18339;DHT22;9295;44.484;11.240;2023-07-22T02:40:18;23.30;99.90
18339;DHT22;9295;44.484;11.240;2023-07-22T02:42:47;23.30;99.90
18339;DHT22;9295;44.484;11.240;2023-07-22T02:45:16;23.30;99.90
18339;DHT22;9295;44.484;11.240;2023-07-22T02:47:46;23.30;99.90
18339;DHT22;9295;44.484;11.240;2023-07-22T02:50:16;23.30;99.90
18339;DHT22;9295;44.484;11.240;2023-07-22T02:52:45;23.20;99.90
18339;DHT22;9295;44.484;11.240;2023-07-22T02:55:17;23.10;99.90
18339;DHT22;9295;44.484;11.240;2023-07-22T02:57:47;23.10;99.90
18339;DHT22;9295;44.484;11.240;2023-07-22T03:00:17;23.10;99.90
18339;DHT22;9295;44.484;11.240;2023-07-22T03:02:51;23.10;99.90
18339;DHT22;9295;44.484;11.240;2023-07-22T03:05:24;23.20;99.90
18339;DHT22;9295;44.484;11.240;2023-07-22T03:07:53;23.20;99.90
18339;DHT22;9295;44.484;11.240;2023-07-22T03:10:21;23.20;99.90
18339;DHT22;9295;44.484;11.240;2023-07-22T03:12:50;23.20;99.90
18339;DHT22;9295;44.484;11.240;2023-07-22T03:15:22;23.10;99.90
18339;DHT22;9295;44.484;11.240;2023-07-22T03:17:53;23.10;99.90
18339;DHT22;9295;44.484;11.240;2023-07-22T03:20:30;23.00;99.90
18339;DHT22;9295;44.484;11.240;2023-07-22T03:22:58;23.00;99.90
18339;DHT22;9295;44.484;11.240;2023-07-22T03:25:27;22.90;99.90
18339;DHT22;9295;44.484;11.240;2023-07-22T03:27:56;22.80;99.90
18339;DHT22;9295;44.484;11.240;2023-07-22T03:30:24;22.70;99.90
18339;DHT22;9295;44.484;11.240;2023-07-22T03:32:55;22.80;99.90
18339;DHT22;9295;44.484;11.240;2023-07-22T03:35:24;22.80;99.90
18339;DHT22;9295;44.484;11.240;2023-07-22T03:37:55;22.90;99.90
18339;DHT22;9295;44.484;11.240;2023-07-22T03:40:23;22.90;99.90
18339;DHT22;9295;44.484;11.240;2023-07-22T03:42:57;23.00;99.90
18339;DHT22;9295;44.484;11.240;2023-07-22T03:45:26;22.90;99.90
18339;DHT22;9295;44.484;11.240;2023-07-22T03:47:57;22.90;99.90
18339;DHT22;9295;44.484;11.240;2023-07-22T03:50:27;22.80;99.90
18339;DHT22;9295;44.484;11.240;2023-07-22T03:52:57;22.80;99.90
18339;DHT22;9295;44.484;11.240;2023-07-22T03:55:26;22.80;99.90
18339;DHT22;9295;44.484;11.240;2023-07-22T03:57:54;22.70;99.90
18339;DHT22;9295;44.484;11.240;2023-07-22T04:00:23;22.70;99.90
18339;DHT22;9295;44.484;11.240;2023-07-22T04:02:51;22.70;99.90
18339;DHT22;9295;44.484;11.240;2023-07-22T04:05:21;22.70;99.90
18339;DHT22;9295;44.484;11.240;2023-07-22T04:07:49;22.70;99.90
18339;DHT22;9295;44.484;11.240;2023-07-22T04:10:19;22.70;99.90
18339;DHT22;9295;44.484;11.240;2023-07-22T04:12:48;22.80;99.90
18339;DHT22;9295;44.484;11.240;2023-07-22T04:15:16;22.70;99.90
18339;DHT22;9295;44.484;11.240;2023-07-22T04:17:45;22.80;99.90
18339;DHT22;9295;44.484;11.240;2023-07-22T04:20:17;23.00;99.90
18339;DHT22;9295;44.484;11.240;2023-07-22T04:22:46;23.10;99.90
18339;DHT22;9295;44.484;11.240;2023-07-22T04:25:15;23.10;99.90
18339;DHT22;9295;44.484;11.240;2023-07-22T04:27:45;23.20;99.90
18339;DHT22;9295;44.484;11.240;2023-07-22T04:30:14;23.20;99.90
18339;DHT22;9295;44.484;11.240;2023-07-22T04:32:48;23.20;99.90
18339;DHT22;9295;44.484;11.240;2023-07-22T04:35:17;23.20;99.90
18339;DHT22;9295;44.484;11.240;2023-07-22T04:37:45;23.30;99.90
18339;DHT22;9295;44.484;11.240;2023-07-22T04:40:14;23.40;99.90
18339;DHT22;9295;44.484;11.240;2023-07-22T04:42:48;23.50;99.90
18339;DHT22;9295;44.484;11.240;2023-07-22T04:45:17;23.50;99.90
18339;DHT22;9295;44.484;11.240;2023-07-22T04:47:46;23.50;99.90
18339;DHT22;9295;44.484;11.240;2023-07-22T04:50:16;23.60;99.90
18339;DHT22;9295;44.484;11.240;2023-07-22T04:52:49;23.60;99.90
18339;DHT22;9295;44.484;11.240;2023-07-22T04:55:17;23.80;99.90
18339;DHT22;9295;44.484;11.240;2023-07-22T04:57:47;23.80;99.90
18339;DHT22;9295;44.484;11.240;2023-07-22T05:00:18;24.00;99.90
18339;DHT22;9295;44.484;11.240;2023-07-22T05:02:47;24.10;99.90
18339;DHT22;9295;44.484;11.240;2023-07-22T05:05:16;24.20;99.90
18339;DHT22;9295;44.484;11.240;2023-07-22T05:07:45;24.40;99.90
18339;DHT22;9295;44.484;11.240;2023-07-22T05:10:18;24.60;99.90
18339;DHT22;9295;44.484;11.240;2023-07-22T05:12:48;24.80;99.90
18339;DHT22;9295;44.484;11.240;2023-07-22T05:15:16;25.00;99.90
18339;DHT22;9295;44.484;11.240;2023-07-22T05:17:45;25.40;99.90
18339;DHT22;9295;44.484;11.240;2023-07-22T05:20:13;25.80;99.90
18339;DHT22;9295;44.484;11.240;2023-07-22T05:22:42;25.90;99.90
18339;DHT22;9295;44.484;11.240;2023-07-22T05:25:10;26.00;99.90
18339;DHT22;9295;44.484;11.240;2023-07-22T05:27:39;26.00;99.90
18339;DHT22;9295;44.484;11.240;2023-07-22T05:30:12;26.00;99.90
18339;DHT22;9295;44.484;11.240;2023-07-22T05:32:59;26.00;99.90
18339;DHT22;9295;44.484;11.240;2023-07-22T05:35:27;26.10;99.90
18339;DHT22;9295;44.484;11.240;2023-07-22T05:37:56;26.20;99.90
18339;DHT22;9295;44.484;11.240;2023-07-22T05:40:25;26.20;99.90
18339;DHT22;9295;44.484;11.240;2023-07-22T05:42:53;26.20;99.90
18339;DHT22;9295;44.484;11.240;2023-07-22T05:45:23;26.30;99.90
18339;DHT22;9295;44.484;11.240;2023-07-22T05:47:51;26.50;99.90
18339;DHT22;9295;44.484;11.240;2023-07-22T05:50:20;26.70;99.90
18339;DHT22;9295;44.484;11.240;2023-07-22T05:52:49;26.80;99.90
18339;DHT22;9295;44.484;11.240;2023-07-22T05:55:17;27.10;99.90
18339;DHT22;9295;44.484;11.240;2023-07-22T05:57:46;27.20;99.90
18339;DHT22;9295;44.484;11.240;2023-07-22T06:00:15;27.30;99.90
18339;DHT22;9295;44.484;11.240;2023-07-22T06:02:46;27.50;99.90
18339;DHT22;9295;44.484;11.240;2023-07-22T06:05:16;27.60;99.90
18339;DHT22;9295;44.484;11.240;2023-07-22T06:07:46;27.70;99.90
18339;DHT22;9295;44.484;11.240;2023-07-22T06:10:14;27.80;99.90
18339;DHT22;9295;44.484;11.240;2023-07-22T06:12:43;28.00;99.90
18339;DHT22;9295;44.484;11.240;2023-07-22T06:15:11;28.20;99.90
18339;DHT22;9295;44.484;11.240;2023-07-22T06:17:40;28.30;99.90
18339;DHT22;9295;44.484;11.240;2023-07-22T06:20:11;28.40;99.90
18339;DHT22;9295;44.484;11.240;2023-07-22T06:22:40;28.40;99.90
18339;DHT22;9295;44.484;11.240;2023-07-22T06:25:09;28.50;99.90
18339;DHT22;9295;44.484;11.240;2023-07-22T06:27:37;28.60;99.90
18339;DHT22;9295;44.484;11.240;2023-07-22T06:30:07;28.60;99.90
18339;DHT22;9295;44.484;11.240;2023-07-22T06:32:37;28.70;99.90
18339;DHT22;9295;44.484;11.240;2023-07-22T06:35:08;28.80;99.90
18339;DHT22;9295;44.484;11.240;2023-07-22T06:37:38;28.80;99.90
18339;DHT22;9295;44.484;11.240;2023-07-22T06:40:08;28.90;99.90
18339;DHT22;9295;44.484;11.240;2023-07-22T06:42:36;29.00;99.90
18339;DHT22;9295;44.484;11.240;2023-07-22T06:45:06;29.00;99.90
18339;DHT22;9295;44.484;11.240;2023-07-22T06:47:38;29.10;99.90
18339;DHT22;9295;44.484;11.240;2023-07-22T06:50:06;29.20;99.90
18339;DHT22;9295;44.484;11.240;2023-07-22T06:52:35;29.40;99.90
18339;DHT22;9295;44.484;11.240;2023-07-22T06:55:07;29.40;99.90
18339;DHT22;9295;44.484;11.240;2023-07-22T06:57:38;29.50;99.90
18339;DHT22;9295;44.484;11.240;2023-07-22T07:00:08;29.60;99.90
18339;DHT22;9295;44.484;11.240;2023-07-22T07:02:37;29.80;99.90
18339;DHT22;9295;44.484;11.240;2023-07-22T07:05:06;30.00;99.90
18339;DHT22;9295;44.484;11.240;2023-07-22T07:07:35;30.00;99.90
18339;DHT22;9295;44.484;11.240;2023-07-22T07:10:04;30.00;99.90
18339;DHT22;9295;44.484;11.240;2023-07-22T07:12:35;30.00;99.90
18339;DHT22;9295;44.484;11.240;2023-07-22T07:15:04;30.20;99.90
18339;DHT22;9295;44.484;11.240;2023-07-22T07:17:33;30.30;99.90
18339;DHT22;9295;44.484;11.240;2023-07-22T07:20:02;30.50;99.90
18339;DHT22;9295;44.484;11.240;2023-07-22T07:22:31;30.20;99.90
18339;DHT22;9295;44.484;11.240;2023-07-22T07:24:59;30.20;99.90
18339;DHT22;9295;44.484;11.240;2023-07-22T07:27:28;30.00;99.90
18339;DHT22;9295;44.484;11.240;2023-07-22T07:30:01;29.70;99.90
18339;DHT22;9295;44.484;11.240;2023-07-22T07:32:31;29.80;99.90
18339;DHT22;9295;44.484;11.240;2023-07-22T07:35:03;30.00;99.90
18339;DHT22;9295;44.484;11.240;2023-07-22T07:37:33;29.90;99.90
18339;DHT22;9295;44.484;11.240;2023-07-22T07:40:03;29.80;99.90
18339;DHT22;9295;44.484;11.240;2023-07-22T07:42:31;30.10;99.90
18339;DHT22;9295;44.484;11.240;2023-07-22T07:45:02;30.40;99.90
18339;DHT22;9295;44.484;11.240;2023-07-22T07:47:31;30.40;99.90
18339;DHT22;9295;44.484;11.240;2023-07-22T07:50:00;30.60;99.90
18339;DHT22;9295;44.484;11.240;2023-07-22T07:52:30;30.80;99.90
18339;DHT22;9295;44.484;11.240;2023-07-22T07:54:59;30.90;99.90
18339;DHT22;9295;44.484;11.240;2023-07-22T07:57:30;31.00;99.90
18339;DHT22;9295;44.484;11.240;2023-07-22T08:00:02;31.00;99.90
18339;DHT22;9295;44.484;11.240;2023-07-22T08:02:31;31.20;99.90
18339;DHT22;9295;44.484;11.240;2023-07-22T08:05:00;31.40;99.90
18339;DHT22;9295;44.484;11.240;2023-07-22T08:07:28;31.30;99.90
18339;DHT22;9295;44.484;11.240;2023-07-22T08:09:57;31.40;99.90
18339;DHT22;9295;44.484;11.240;2023-07-22T08:12:26;31.20;99.90
18339;DHT22;9295;44.484;11.240;2023-07-22T08:14:55;31.10;99.90
18339;DHT22;9295;44.484;11.240;2023-07-22T08:17:25;31.00;99.90
18339;DHT22;9295;44.484;11.240;2023-07-22T08:19:56;31.10;99.90
18339;DHT22;9295;44.484;11.240;2023-07-22T08:22:31;31.40;99.90
18339;DHT22;9295;44.484;11.240;2023-07-22T08:25:00;31.70;99.90
18339;DHT22;9295;44.484;11.240;2023-07-22T08:27:31;31.90;99.90
18339;DHT22;9295;44.484;11.240;2023-07-22T08:30:01;31.50;99.90
18339;DHT22;9295;44.484;11.240;2023-07-22T08:32:36;31.40;99.90
18339;DHT22;9295;44.484;11.240;2023-07-22T08:35:08;30.90;99.90
18339;DHT22;9295;44.484;11.240;2023-07-22T08:37:36;31.20;99.90
18339;DHT22;9295;44.484;11.240;2023-07-22T08:40:10;31.40;99.90
18339;DHT22;9295;44.484;11.240;2023-07-22T08:42:41;31.40;99.90
18339;DHT22;9295;44.484;11.240;2023-07-22T08:45:14;31.50;99.90
18339;DHT22;9295;44.484;11.240;2023-07-22T08:47:46;31.40;99.90
18339;DHT22;9295;44.484;11.240;2023-07-22T08:50:20;31.10;99.90
18339;DHT22;9295;44.484;11.240;2023-07-22T08:52:53;31.30;99.90
18339;DHT22;9295;44.484;11.240;2023-07-22T08:55:22;31.10;99.90
18339;DHT22;9295;44.484;11.240;2023-07-22T08:57:52;31.30;99.90
18339;DHT22;9295;44.484;11.240;2023-07-22T09:00:21;31.50;99.90
18339;DHT22;9295;44.484;11.240;2023-07-22T09:02:52;31.70;99.90
18339;DHT22;9295;44.484;11.240;2023-07-22T09:05:21;32.00;99.90
18339;DHT22;9295;44.484;11.240;2023-07-22T09:07:51;32.00;99.90
18339;DHT22;9295;44.484;11.240;2023-07-22T09:10:23;32.00;99.90
18339;DHT22;9295;44.484;11.240;2023-07-22T09:12:56;31.60;99.90
18339;DHT22;9295;44.484;11.240;2023-07-22T09:15:25;31.10;99.90
18339;DHT22;9295;44.484;11.240;2023-07-22T09:17:55;31.00;99.90
18339;DHT22;9295;44.484;11.240;2023-07-22T09:20:24;31.30;99.90
18339;DHT22;9295;44.484;11.240;2023-07-22T09:22:58;31.60;99.90
18339;DHT22;9295;44.484;11.240;2023-07-22T09:25:40;31.70;99.90
18339;DHT22;9295;44.484;11.240;2023-07-22T09:28:09;31.90;99.90
18339;DHT22;9295;44.484;11.240;2023-07-22T09:30:39;31.60;99.90
18339;DHT22;9295;44.484;11.240;2023-07-22T09:33:20;31.60;99.90
18339;DHT22;9295;44.484;11.240;2023-07-22T09:35:50;31.40;99.90
18339;DHT22;9295;44.484;11.240;2023-07-22T09:38:22;31.50;99.90
18339;DHT22;9295;44.484;11.240;2023-07-22T09:40:53;31.40;99.90
18339;DHT22;9295;44.484;11.240;2023-07-22T09:43:23;31.20;99.90
18339;DHT22;9295;44.484;11.240;2023-07-22T09:45:51;31.00;99.90
18339;DHT22;9295;44.484;11.240;2023-07-22T09:48:22;31.10;99.90
18339;DHT22;9295;44.484;11.240;2023-07-22T09:50:56;31.40;99.90
18339;DHT22;9295;44.484;11.240;2023-07-22T09:53:25;31.40;99.90
18339;DHT22;9295;44.484;11.240;2023-07-22T09:55:54;31.30;99.90
18339;DHT22;9295;44.484;11.240;2023-07-22T09:58:24;31.10;99.90
18339;DHT22;9295;44.484;11.240;2023-07-22T10:00:54;31.40;99.90
18339;DHT22;9295;44.484;11.240;2023-07-22T10:03:29;31.70;99.90
18339;DHT22;9295;44.484;11.240;2023-07-22T10:06:00;31.90;99.90
18339;DHT22;9295;44.484;11.240;2023-07-22T10:08:30;32.00;99.90
18339;DHT22;9295;44.484;11.240;2023-07-22T10:11:06;31.90;99.90
18339;DHT22;9295;44.484;11.240;2023-07-22T10:13:36;31.70;99.90
18339;DHT22;9295;44.484;11.240;2023-07-22T10:16:05;31.90;99.90
18339;DHT22;9295;44.484;11.240;2023-07-22T10:18:36;31.80;99.90
18339;DHT22;9295;44.484;11.240;2023-07-22T10:21:08;31.70;99.90
18339;DHT22;9295;44.484;11.240;2023-07-22T10:23:38;31.60;99.90
18339;DHT22;9295;44.484;11.240;2023-07-22T10:26:07;31.60;99.90
18339;DHT22;9295;44.484;11.240;2023-07-22T10:28:38;31.70;99.90
18339;DHT22;9295;44.484;11.240;2023-07-22T10:31:08;31.90;99.90
18339;DHT22;9295;44.484;11.240;2023-07-22T10:33:40;32.10;99.90
18339;DHT22;9295;44.484;11.240;2023-07-22T10:36:14;32.30;99.90
18339;DHT22;9295;44.484;11.240;2023-07-22T10:38:43;32.40;99.90
18339;DHT22;9295;44.484;11.240;2023-07-22T10:41:15;32.50;99.90
18339;DHT22;9295;44.484;11.240;2023-07-22T10:43:54;32.60;99.90
18339;DHT22;9295;44.484;11.240;2023-07-22T10:46:32;32.50;99.90
18339;DHT22;9295;44.484;11.240;2023-07-22T10:49:14;32.40;99.90
18339;DHT22;9295;44.484;11.240;2023-07-22T10:51:47;32.40;99.90
18339;DHT22;9295;44.484;11.240;2023-07-22T10:54:32;32.50;99.90
18339;DHT22;9295;44.484;11.240;2023-07-22T10:57:03;32.60;99.90
18339;DHT22;9295;44.484;11.240;2023-07-22T10:59:34;32.60;99.90
18339;DHT22;9295;44.484;11.240;2023-07-22T11:02:07;32.30;99.90
18339;DHT22;9295;44.484;11.240;2023-07-22T11:04:53;32.10;99.90
18339;DHT22;9295;44.484;11.240;2023-07-22T11:07:31;31.80;99.90
18339;DHT22;9295;44.484;11.240;2023-07-22T11:10:15;31.90;99.90
18339;DHT22;9295;44.484;11.240;2023-07-22T11:12:48;31.50;99.90
18339;DHT22;9295;44.484;11.240;2023-07-22T11:15:18;31.40;99.90
18339;DHT22;9295;44.484;11.240;2023-07-22T11:17:47;31.30;99.90
18339;DHT22;9295;44.484;11.240;2023-07-22T11:20:22;31.50;99.90
18339;DHT22;9295;44.484;11.240;2023-07-22T11:22:51;31.80;99.90
18339;DHT22;9295;44.484;11.240;2023-07-22T11:25:20;32.00;99.90
18339;DHT22;9295;44.484;11.240;2023-07-22T11:27:50;31.90;99.90
18339;DHT22;9295;44.484;11.240;2023-07-22T11:30:19;31.90;99.90
18339;DHT22;9295;44.484;11.240;2023-07-22T11:32:51;32.00;99.90
18339;DHT22;9295;44.484;11.240;2023-07-22T11:35:23;32.20;99.90
18339;DHT22;9295;44.484;11.240;2023-07-22T11:38:01;32.40;99.90
18339;DHT22;9295;44.484;11.240;2023-07-22T11:40:33;32.20;99.90
18339;DHT22;9295;44.484;11.240;2023-07-22T11:43:03;32.10;99.90
18339;DHT22;9295;44.484;11.240;2023-07-22T11:45:32;32.20;99.90
18339;DHT22;9295;44.484;11.240;2023-07-22T11:48:08;32.10;99.90
18339;DHT22;9295;44.484;11.240;2023-07-22T11:50:39;31.80;99.90
18339;DHT22;9295;44.484;11.240;2023-07-22T11:53:11;31.70;99.90
18339;DHT22;9295;44.484;11.240;2023-07-22T11:55:41;31.70;99.90
18339;DHT22;9295;44.484;11.240;2023-07-22T11:58:11;31.70;99.90
18339;DHT22;9295;44.484;11.240;2023-07-22T12:00:45;31.50;99.90
18339;DHT22;9295;44.484;11.240;2023-07-22T12:03:32;31.50;99.90
18339;DHT22;9295;44.484;11.240;2023-07-22T12:06:03;31.60;99.90
18339;DHT22;9295;44.484;11.240;2023-07-22T12:08:36;31.80;99.90
18339;DHT22;9295;44.484;11.240;2023-07-22T12:11:06;31.90;99.90
18339;DHT22;9295;44.484;11.240;2023-07-22T12:13:37;32.20;99.90
18339;DHT22;9295;44.484;11.240;2023-07-22T12:16:06;32.40;99.90
18339;DHT22;9295;44.484;11.240;2023-07-22T12:18:43;32.60;99.90
18339;DHT22;9295;44.484;11.240;2023-07-22T12:21:17;32.50;99.90
18339;DHT22;9295;44.484;11.240;2023-07-22T12:23:47;32.50;99.90
18339;DHT22;9295;44.484;11.240;2023-07-22T12:26:16;32.50;99.90
18339;DHT22;9295;44.484;11.240;2023-07-22T12:28:47;32.80;99.90
18339;DHT22;9295;44.484;11.240;2023-07-22T12:31:16;33.00;99.90
18339;DHT22;9295;44.484;11.240;2023-07-22T12:33:46;33.10;99.90
18339;DHT22;9295;44.484;11.240;2023-07-22T12:36:19;33.20;99.90
18339;DHT22;9295;44.484;11.240;2023-07-22T12:38:51;33.20;99.90
18339;DHT22;9295;44.484;11.240;2023-07-22T12:41:24;33.30;99.90
18339;DHT22;9295;44.484;11.240;2023-07-22T12:43:54;33.30;99.90
18339;DHT22;9295;44.484;11.240;2023-07-22T12:46:23;33.40;99.90
18339;DHT22;9295;44.484;11.240;2023-07-22T12:48:53;33.40;99.90
18339;DHT22;9295;44.484;11.240;2023-07-22T12:51:24;33.40;99.90
18339;DHT22;9295;44.484;11.240;2023-07-22T12:53:57;33.30;99.90
18339;DHT22;9295;44.484;11.240;2023-07-22T12:59:14;33.20;99.90
18339;DHT22;9295;44.484;11.240;2023-07-22T13:01:42;33.00;99.90
18339;DHT22;9295;44.484;11.240;2023-07-22T13:04:11;32.60;99.90
18339;DHT22;9295;44.484;11.240;2023-07-22T13:06:41;31.40;99.90
18339;DHT22;9295;44.484;11.240;2023-07-22T13:09:09;30.50;99.90
18339;DHT22;9295;44.484;11.240;2023-07-22T13:11:38;29.50;99.90
18339;DHT22;9295;44.484;11.240;2023-07-22T13:14:06;28.60;99.90
18339;DHT22;9295;44.484;11.240;2023-07-22T13:16:35;27.70;99.90
18339;DHT22;9295;44.484;11.240;2023-07-22T13:19:03;27.00;99.90
18339;DHT22;9295;44.484;11.240;2023-07-22T13:21:37;26.50;99.90
18339;DHT22;9295;44.484;11.240;2023-07-22T13:24:07;26.20;99.90
18339;DHT22;9295;44.484;11.240;2023-07-22T13:26:35;25.90;99.90
18339;DHT22;9295;44.484;11.240;2023-07-22T13:29:06;24.70;99.90
18339;DHT22;9295;44.484;11.240;2023-07-22T13:31:36;23.20;99.90
18339;DHT22;9295;44.484;11.240;2023-07-22T13:34:04;22.30;99.90
18339;DHT22;9295;44.484;11.240;2023-07-22T13:36:33;22.30;99.90
18339;DHT22;9295;44.484;11.240;2023-07-22T13:39:01;22.10;99.90
18339;DHT22;9295;44.484;11.240;2023-07-22T13:41:31;22.10;99.90
18339;DHT22;9295;44.484;11.240;2023-07-22T13:44:00;22.40;99.90
18339;DHT22;9295;44.484;11.240;2023-07-22T13:46:28;22.60;99.90
18339;DHT22;9295;44.484;11.240;2023-07-22T13:48:57;22.80;99.90
18339;DHT22;9295;44.484;11.240;2023-07-22T13:51:25;22.80;99.90
18339;DHT22;9295;44.484;11.240;2023-07-22T13:53:54;22.90;99.90
18339;DHT22;9295;44.484;11.240;2023-07-22T13:56:25;23.20;99.90
18339;DHT22;9295;44.484;11.240;2023-07-22T13:58:55;23.40;99.90
18339;DHT22;9295;44.484;11.240;2023-07-22T14:01:25;23.50;99.90
18339;DHT22;9295;44.484;11.240;2023-07-22T14:03:55;23.90;99.90
18339;DHT22;9295;44.484;11.240;2023-07-22T14:06:23;24.20;99.90
18339;DHT22;9295;44.484;11.240;2023-07-22T14:08:52;24.50;99.90
18339;DHT22;9295;44.484;11.240;2023-07-22T14:11:20;24.90;99.90
18339;DHT22;9295;44.484;11.240;2023-07-22T14:13:49;25.20;99.90
18339;DHT22;9295;44.484;11.240;2023-07-22T14:16:20;25.60;99.90
18339;DHT22;9295;44.484;11.240;2023-07-22T14:18:49;25.80;99.90
18339;DHT22;9295;44.484;11.240;2023-07-22T14:21:19;26.10;99.90
18339;DHT22;9295;44.484;11.240;2023-07-22T14:23:47;26.30;99.90
18339;DHT22;9295;44.484;11.240;2023-07-22T14:26:16;26.40;99.90
18339;DHT22;9295;44.484;11.240;2023-07-22T14:28:45;26.60;99.90
18339;DHT22;9295;44.484;11.240;2023-07-22T14:31:13;26.70;99.90
18339;DHT22;9295;44.484;11.240;2023-07-22T14:33:43;26.90;99.90
18339;DHT22;9295;44.484;11.240;2023-07-22T14:36:11;26.90;99.90
18339;DHT22;9295;44.484;11.240;2023-07-22T14:38:40;27.00;99.90
18339;DHT22;9295;44.484;11.240;2023-07-22T14:41:08;27.10;99.90
18339;DHT22;9295;44.484;11.240;2023-07-22T14:43:38;27.20;99.90
18339;DHT22;9295;44.484;11.240;2023-07-22T14:46:06;27.20;99.90
18339;DHT22;9295;44.484;11.240;2023-07-22T14:48:35;27.30;99.90
18339;DHT22;9295;44.484;11.240;2023-07-22T14:51:05;27.40;99.90
18339;DHT22;9295;44.484;11.240;2023-07-22T14:53:33;27.40;99.90
18339;DHT22;9295;44.484;11.240;2023-07-22T14:56:02;27.40;99.90
18339;DHT22;9295;44.484;11.240;2023-07-22T14:58:30;27.40;99.90
18339;DHT22;9295;44.484;11.240;2023-07-22T15:00:59;27.60;99.90
18339;DHT22;9295;44.484;11.240;2023-07-22T15:03:30;27.80;99.90
18339;DHT22;9295;44.484;11.240;2023-07-22T15:05:59;27.90;99.90
18339;DHT22;9295;44.484;11.240;2023-07-22T15:08:30;28.00;99.90
18339;DHT22;9295;44.484;11.240;2023-07-22T15:10:59;28.10;99.90
18339;DHT22;9295;44.484;11.240;2023-07-22T15:13:30;28.10;99.90
18339;DHT22;9295;44.484;11.240;2023-07-22T15:15:58;28.10;99.90
18339;DHT22;9295;44.484;11.240;2023-07-22T15:18:27;28.20;99.90
18339;DHT22;9295;44.484;11.240;2023-07-22T15:20:55;28.30;99.90
18339;DHT22;9295;44.484;11.240;2023-07-22T15:23:24;28.40;99.90
18339;DHT22;9295;44.484;11.240;2023-07-22T15:25:54;28.40;99.90
18339;DHT22;9295;44.484;11.240;2023-07-22T15:28:23;28.50;99.90
18339;DHT22;9295;44.484;11.240;2023-07-22T15:30:53;28.50;99.90
18339;DHT22;9295;44.484;11.240;2023-07-22T15:33:21;28.60;99.90
18339;DHT22;9295;44.484;11.240;2023-07-22T15:35:50;28.70;99.90
18339;DHT22;9295;44.484;11.240;2023-07-22T15:38:18;28.80;99.90
18339;DHT22;9295;44.484;11.240;2023-07-22T15:40:47;28.80;99.90
18339;DHT22;9295;44.484;11.240;2023-07-22T15:43:17;28.90;99.90
18339;DHT22;9295;44.484;11.240;2023-07-22T15:45:45;28.90;99.90
18339;DHT22;9295;44.484;11.240;2023-07-22T15:48:14;28.90;99.90
18339;DHT22;9295;44.484;11.240;2023-07-22T15:50:44;29.00;99.90